• Join FlightAware (Why Join?)
  • Login
  • US Flag 
08:36AM EDT


 

Airport Tracker/Info


-or-


 

Live Flight TrackerFlight Track Log ✈ N244A ✈ 05-Sep-2013 ✈ KPLN - KLUK

Flight Track Log - Related Links

Times and Time Zones

All times are in EDT time to prevent confusion due to time zone crossing. See the N244A flight status page for this flight to view local times or setup timezone preferences in your user account.

Time Position Orientation Groundspeed Altitude Reporting Facility
EDT Latitude Longitude Course Direction KTS MPH feet Rate Location/Type
07:12PM 45.4615 -84.7833 180° South  Level FlightAware Approximate
07:13PM 45.3563 -84.7833 180° South  Level FlightAware Approximate
07:14PM 45.2510 -84.7833 180° South  Level FlightAware Approximate
07:15PM 45.1458 -84.7829 176° South  Level FlightAware Approximate
07:16PM 45.0410 -84.7712 176° South  Level FlightAware Approximate
07:17PM 44.9359 -84.7667 180° South  Level FlightAware Approximate
07:18PM 44.8307 -84.7667 180° South  Level FlightAware Approximate
07:19PM 44.7254 -84.7667 180° South  Level FlightAware Approximate
07:20PM 44.6203 -84.7648 174° South  Level FlightAware Approximate
07:21PM 44.5156 -84.7500 180° South  Level FlightAware Approximate
07:22PM 44.4104 -84.7500 180° South  Level FlightAware Approximate
07:23PM 44.3052 -84.7500 180° South  Level FlightAware Approximate
07:24PM 44.2000 -84.7500 180° South  Level FlightAware Approximate
07:25PM 44.0949 -84.7465 176° South  Level FlightAware Approximate
07:26PM 43.9899 -84.7370 176° South  Level FlightAware Approximate
07:27PM 43.8848 -84.7333 180° South  Level FlightAware Approximate
07:28PM 43.7795 -84.7333 180° South  Level FlightAware Approximate
07:29PM 43.6743 -84.7333 180° South  Level FlightAware Approximate
07:30PM 43.5697 -84.7253 169° South  Level FlightAware Approximate
07:31PM 43.4663 -84.6981 169° South  Level FlightAware Approximate
07:32PM 43.3630 -84.6709 169° South  Level FlightAware Approximate
07:33PM 43.2593 -84.6484 171° South  Level FlightAware Approximate
07:34PM 43.1555 -84.6253 171° South  Level FlightAware Approximate
07:35PM 43.0515 -84.6030 171° South  Level FlightAware Approximate
07:36PM 42.9475 -84.5813 171° South  Level FlightAware Approximate
07:37PM 42.8435 -84.5596 171° South  Level FlightAware Approximate
07:38PM 42.7395 -84.5381 171° South  Level FlightAware Approximate
07:39PM 42.6356 -84.5160 171° South  Level FlightAware Approximate
07:40PM 42.5316 -84.4938 171° South  Level FlightAware Approximate
07:41PM 42.4277 -84.4716 171° South  Level FlightAware Approximate
07:42PM 42.3237 -84.4496 171° South  Level FlightAware Approximate
07:43PM 42.2198 -84.4276 171° South  Level FlightAware Approximate
07:44PM 42.1158 -84.4057 171° South  Level FlightAware Approximate
07:45PM 42.0119 -84.3839 171° South  Level FlightAware Approximate
07:46PM 41.9079 -84.3621 171° South  Level FlightAware Approximate
07:47PM 41.8040 -84.3401 171° South  Level FlightAware Approximate
07:48PM 41.7001 -84.3178 171° South  Level FlightAware Approximate
07:49PM 41.5961 -84.2963 172° South  Level FlightAware Approximate
07:50PM 41.4919 -84.2773 172° South  Level FlightAware Approximate
07:51PM 41.3876 -84.2590 173° South  Level FlightAware Approximate
07:52PM 41.2835 -84.2389 170° South  Level FlightAware Approximate
07:53PM 41.1797 -84.2158 170° South  Level FlightAware Approximate
07:54PM 41.0760 -84.1928 171° South  Level FlightAware Approximate
07:55PM 40.9720 -84.1711 171° South  Level FlightAware Approximate
07:56PM 40.8683 -84.1500 180° South  Level FlightAware Approximate
07:57PM 40.7640 -84.1351 171° South  Level FlightAware Approximate
07:57PM 45.5728 -84.9014 189° South 235 270 5,600  Level Minneapolis Center
07:58PM 40.6601 -84.1128 171° South  Level FlightAware Approximate
07:58PM 45.4997 -84.9325 197° South 270 311 9,500  Level Minneapolis Center
07:59PM 40.5565 -84.0891 169° South  Level FlightAware Approximate
07:59PM 45.4056 -84.9381 182° South 324 373 12,000  Level Minneapolis Center
08:00PM 40.4527 -84.0660 171° South  Level FlightAware Approximate
08:00PM 45.2836 -84.9303 177° South 360 414 11,000  Level Minneapolis Center
08:01PM 40.3489 -84.0438 171° South  Level FlightAware Approximate
08:01PM 45.1967 -84.9214 176° South 336 387 9,900  Level Minneapolis Center
08:02PM 40.2448 -84.0411 189° South  Level FlightAware Approximate
08:02PM 45.1269 -84.9172 178° South 323 372 9,900  Level Minneapolis Center
08:03PM 45.0197 -84.8989 173° South 320 368 10,000  Climbing Minneapolis Center
08:04PM 44.9300 -84.8836 173° South 321 369 10,000  Level Minneapolis Center
08:05PM 44.8244 -84.8761 177° South 365 420 10,000  Level Minneapolis Center
08:06PM 44.7275 -84.8617 174° South 359 413 10,000  Level Minneapolis Center
08:07PM 44.6014 -84.8481 176° South 367 422 10,000 600 Level Minneapolis Center
08:08PM 44.4900 -84.8375 176° South 378 435 11,300 1,740 Climbing Minneapolis Center
08:09PM 44.3703 -84.8211 174° South 401 461 13,600 2,100 Climbing Minneapolis Center
08:11PM 44.2497 -84.8086 176° South 418 481 15,700 1,860 Climbing Minneapolis Center
08:12PM 44.1269 -84.7942 175° South 429 494 17,500 1,620 Climbing Minneapolis Center
08:13PM 44.0025 -84.7789 175° South 439 505 19,100 1,560 Climbing Minneapolis Center
08:14PM 43.8714 -84.7689 177° South 452 520 20,800 1,380 Climbing Minneapolis Center
08:15PM 43.7425 -84.7508 174° South 458 527 22,000 1,080 Climbing Minneapolis Center
08:16PM 43.5789 -84.7342 176° South 472 543 23,100 1,740 Climbing Minneapolis Center
08:17PM 43.4181 -84.6928 169° South 482 555 26,000 2,220 Climbing Minneapolis Center
08:18PM 43.2911 -84.6628 170° South 475 547 28,200 1,740 Climbing Minneapolis Center
08:19PM 43.1914 -84.6414 171° South 477 549 29,200 960 Climbing Cleveland Center
08:20PM 43.0589 -84.6128 171° South 477 549 30,000 360 Climbing Cleveland Center
08:21PM 42.9097 -84.5833 172° South 487 560 30,000  Level Cleveland Center
08:22PM 42.7669 -84.5514 171° South 501 577 30,000  Level Cleveland Center
08:23PM 42.6367 -84.5264 172° South 520 598 30,000  Level Cleveland Center
08:24PM 42.4936 -84.4978 172° South 525 604 30,000  Level Cleveland Center
08:25PM 42.3508 -84.4664 171° South 525 604 30,000  Level Cleveland Center
08:26PM 42.1914 -84.4314 171° South 525 604 30,000 -120 Level Cleveland Center
08:27PM 42.0694 -84.4017 170° South 519 597 29,800 -780 Descending Cleveland Center
08:28PM 41.9328 -84.3739 171° South 509 586 28,500 -900 Descending Cleveland Center
08:29PM 41.7961 -84.3464 171° South 504 580 28,000 -300 Descending Cleveland Center
08:30PM 41.6592 -84.3189 171° South 497 572 28,000  Level Cleveland Center
08:31PM 41.5081 -84.2881 171° South 502 578 28,000  Level Cleveland Center
08:32PM 41.3650 -84.2603 172° South 509 586 28,000 -60 Level Cleveland Center
08:33PM 41.2200 -84.2300 171° South 520 598 27,900 -720 Descending Cleveland Center
08:34PM 41.0842 -84.2419 184° South 508 585 26,600 -1,500 Descending Cleveland Center
08:35PM 40.9372 -84.2678 188° South 497 572 24,700 -1,200 Descending Indianapolis Center
08:36PM 40.8058 -84.2931 188° South 485 558 24,000 -900 Descending Indianapolis Center
08:37PM 40.6528 -84.3008 182° South 462 532 22,900 -1,560 Descending Indianapolis Center
08:38PM 40.5206 -84.3117 184° South 473 544 20,800 -1,980 Descending Indianapolis Center
08:39PM 40.3892 -84.3231 184° South 476 548 18,900 -1,860 Descending Indianapolis Center
08:40PM 40.2631 -84.3319 183° South 462 532 17,000 -1,920 Descending Indianapolis Center
08:41PM 40.1481 -84.3417 184° South 449 517 15,400 -1,980 Descending Indianapolis Center
08:42PM 40.0178 -84.3508 183° South 440 506 13,000 -2,040 Descending Indianapolis Center
08:43PM 39.8994 -84.3594 183° South 432 497 10,900 -1,680 Descending Indianapolis Center
08:44PM 39.7772 -84.3689 183° South 379 436 9,600 -1,740 Descending Indianapolis Center
08:45PM 39.6903 -84.3733 182° South 325 374 7,400 -1,920 Descending Indianapolis Center
08:46PM 39.6061 -84.3803 184° South 314 361 5,700 -1,620 Descending Indianapolis Center
08:47PM 39.5297 -84.3872 184° South 292 336 4,100 -840 Descending Indianapolis Center
08:48PM 39.4531 -84.3894 181° South 282 325 4,000 -60 Descending Indianapolis Center
08:49PM 39.3742 -84.3964 184° South 282 325 4,000 -360 Level Indianapolis Center
08:50PM 39.3197 -84.3517 148° Southeast 259 298 3,300 -540 Descending Indianapolis Center
08:51PM 39.2469 -84.3431 175° South 246 283 3,000 -540 Descending Indianapolis Center
08:52PM 39.1964 -84.3681 201° Southwest 215 247 2,300 -720 Descending Indianapolis Center
08:53PM 39.1481 -84.3900 199° South 198 228 1,600 -720 Descending Indianapolis Center
08:55PM 39.1000 -84.4167 191° South  Level FlightAware Approximate
09:02PM 39.1033 -84.4186 191° South  Level Estimated